Time;durP1;ratioP1;P1;durP2;ratioP2;P2;SDS_P1;SDS_P2;PMS_P1;PMS_P2;Temp;Humidity;BMP_temperature;BMP_pressure;BME280_temperature;BME280_humidity;BME280_pressure;Samples;Min_cycle;Max_cycle;Signal;HPM_P1;HPM_P2
2022/11/09 05:38:29;;;;;;;50.95;27.45;;;;;;;6.26;100.00;101014.16;1795524;79;21651;-40
2022/11/09 05:40:56;;;;;;;55.50;29.20;;;;;;;6.29;100.00;101018.55;1786764;79;20935;-39
2022/11/09 05:43:22;;;;;;;47.60;26.23;;;;;;;6.28;100.00;101013.77;1789219;78;21056;-39
2022/11/09 05:45:49;;;;;;;58.85;31.10;;;;;;;6.27;100.00;101014.62;1778508;78;20985;-39
2022/11/09 05:48:16;;;;;;;55.78;29.82;;;;;;;6.29;100.00;101015.95;1782763;80;21087;-47
2022/11/09 05:50:43;;;;;;;51.30;30.23;;;;;;;6.33;100.00;101022.59;1783849;79;20950;-47
2022/11/09 05:53:18;;;;;;;55.15;28.65;;;;;;;6.35;100.00;101019.59;1766885;80;22109;-40
2022/11/09 05:55:44;;;;;;;63.80;28.17;;;;;;;6.40;100.00;101027.11;1740010;81;21025;-46
2022/11/09 05:58:11;;;;;;;52.27;27.65;;;;;;;6.45;100.00;101025.08;1726256;81;21599;-45
2022/11/09 06:00:41;;;;;;;47.70;26.33;;;;;;;6.50;100.00;101031.28;1723071;82;21541;-47
2022/11/09 06:03:10;;;;;;;54.80;28.87;;;;;;;6.50;100.00;101030.87;1737590;81;21080;-39
2022/11/09 06:05:39;;;;;;;51.08;27.85;;;;;;;6.52;100.00;101025.28;1720517;82;21006;-39
2022/11/09 06:08:12;;;;;;;49.50;28.35;;;;;;;6.58;100.00;101030.64;1720455;82;21025;-40
2022/11/09 06:10:41;;;;;;;51.45;30.17;;;;;;;6.64;100.00;101031.23;1717637;82;21543;-46
2022/11/09 06:13:08;;;;;;;52.98;28.57;;;;;;;6.70;100.00;101028.80;1720927;82;21128;-47
2022/11/09 06:15:40;;;;;;;49.23;27.75;;;;;;;6.79;100.00;101035.99;1717813;82;21481;-46
2022/11/09 06:18:07;;;;;;;51.90;31.57;;;;;;;6.87;100.00;101043.56;1717916;82;21659;-46
2022/11/09 06:20:37;;;;;;;54.15;30.62;;;;;;;6.89;100.00;101038.84;1713709;82;21017;-47
2022/11/09 06:23:05;;;;;;;61.45;36.42;;;;;;;6.92;100.00;101040.67;1713711;82;21101;-39
2022/11/09 06:25:32;;;;;;;64.12;39.27;;;;;;;6.99;100.00;101041.28;1716019;82;21146;-38
2022/11/09 06:28:00;;;;;;;72.55;47.98;;;;;;;7.06;100.00;101043.20;1713107;82;21100;-49
2022/11/09 06:30:29;;;;;;;79.47;52.23;;;;;;;7.13;100.00;101045.15;1716353;82;21049;-38
2022/11/09 06:33:18;;;;;;;77.12;51.37;;;;;;;7.20;100.00;101050.08;1716202;82;21085;-47
2022/11/09 06:36:07;;;;;;;74.12;45.17;;;;;;;7.27;100.00;101051.99;1715477;82;21686;-48
2022/11/09 06:39:20;;;;;;;70.32;47.62;;;;;;;7.34;99.79;101053.02;1716517;82;21580;-48
2022/11/09 06:41:57;;;;;;;72.72;47.65;;;;;;;7.32;99.60;101050.81;1714193;82;21042;-47
2022/11/09 06:44:26;;;;;;;83.00;51.13;;;;;;;7.30;99.65;101047.27;1699310;82;22246;-47
2022/11/09 06:46:56;;;;;;;79.60;52.88;;;;;;;7.27;99.72;101050.69;1720281;81;21667;-46
2022/11/09 06:49:26;;;;;;;77.67;52.70;;;;;;;7.32;99.95;101049.52;1716050;81;20978;-49
2022/11/09 06:51:58;;;;;;;73.37;53.63;;;;;;;7.40;99.78;101052.75;1716310;82;20989;-47
2022/11/09 06:54:30;;;;;;;76.42;49.40;;;;;;;7.47;99.54;101049.45;1717138;82;21233;-39
2022/11/09 06:57:06;;;;;;;72.80;49.42;;;;;;;7.53;99.03;101050.02;1699435;82;21155;-47
2022/11/09 06:59:35;;;;;;;77.67;50.50;;;;;;;7.61;98.83;101048.92;1690973;82;21284;-39
2022/11/09 07:02:02;;;;;;;81.85;53.60;;;;;;;7.69;98.70;101049.55;1714150;80;21563;-40
2022/11/09 07:04:31;;;;;;;86.08;55.80;;;;;;;7.78;98.42;101046.72;1717253;82;21537;-40
2022/11/09 07:07:00;;;;;;;59.77;36.13;;;;;;;7.86;98.04;101052.55;1716264;82;21544;-40
2022/11/09 07:09:27;;;;;;;59.98;34.90;;;;;;;7.93;97.73;101046.63;1717531;82;21033;-47
2022/11/09 07:11:55;;;;;;;51.80;31.20;;;;;;;8.02;97.53;101049.00;1721996;81;21040;-40
2022/11/09 07:14:28;;;;;;;63.45;32.53;;;;;;;8.08;97.02;101050.44;1723282;81;21721;-48
2022/11/09 07:16:56;;;;;;;52.78;31.57;;;;;;;8.13;96.49;101050.99;1669129;82;21100;-39
2022/11/09 07:19:24;;;;;;;51.53;31.20;;;;;;;8.21;96.25;101055.05;1714071;81;21037;-47
2022/11/09 07:21:56;;;;;;;61.88;33.28;;;;;;;8.28;96.02;101056.94;1710208;82;21604;-47
2022/11/09 07:24:56;;;;;;;50.20;30.50;;;;;;;8.35;95.71;101056.64;1714596;81;21659;-38
2022/11/09 07:27:52;;;;;;;52.80;31.23;;;;;;;8.46;95.37;101060.39;1711898;82;21697;-47
2022/11/09 07:30:43;;;;;;;50.67;31.07;;;;;;;8.57;94.86;101057.58;1713946;82;21344;-47
2022/11/09 07:33:31;;;;;;;56.83;30.52;;;;;;;8.70;94.23;101057.42;1713441;82;21025;-38
2022/11/09 07:36:47;;;;;;;52.75;30.10;;;;;;;8.78;93.76;101060.63;1716115;82;21410;-40
2022/11/09 07:39:26;;;;;;;54.55;29.35;;;;;;;8.82;92.73;101064.19;1721871;80;21026;-39
2022/11/09 07:41:54;;;;;;;49.45;29.45;;;;;;;8.81;92.09;101063.70;1718423;82;21045;-47
2022/11/09 07:44:31;;;;;;;48.78;30.10;;;;;;;8.80;92.13;101064.13;1720139;82;21623;-42
2022/11/09 07:46:58;;;;;;;48.50;29.48;;;;;;;8.86;91.94;101065.98;1718018;82;21465;-42
2022/11/09 07:49:34;;;;;;;;;;;;;;;8.89;91.50;101073.87;1718001;82;21321;-50
2022/11/09 07:52:03;;;;;;;51.50;31.35;;;;;;;8.88;91.28;101068.21;1717401;82;20536;-40
2022/11/09 07:54:30;;;;;;;53.73;30.72;;;;;;;8.92;91.73;101076.53;1716466;82;21133;-39
2022/11/09 07:56:57;;;;;;;49.70;28.52;;;;;;;9.01;91.80;101072.80;1716961;82;21014;-38
2022/11/09 07:59:24;;;;;;;54.05;29.85;;;;;;;9.11;91.56;101074.29;1713994;82;21039;-48
2022/11/09 08:01:55;;;;;;;49.20;28.50;;;;;;;9.19;91.22;101075.30;1723756;81;21467;-40
2022/11/09 08:04:25;;;;;;;52.60;29.42;;;;;;;9.27;91.04;101072.38;1678226;82;21068;-47
2022/11/09 08:06:52;;;;;;;47.43;28.85;;;;;;;9.37;90.38;101074.73;1712902;82;21390;-47
2022/11/09 08:09:20;;;;;;;53.75;28.73;;;;;;;9.44;89.80;101079.20;1717156;80;21077;-47
2022/11/09 08:11:47;;;;;;;50.92;29.80;;;;;;;9.51;89.31;101081.09;1713687;82;21065;-39
2022/11/09 08:14:44;;;;;;;45.35;27.17;;;;;;;9.58;88.83;101078.59;1714059;80;21140;-47
2022/11/09 08:21:45;;;;;;;50.85;27.45;;;;;;;9.71;87.86;101083.59;1709595;81;21064;-47
2022/11/09 08:24:23;;;;;;;44.70;28.85;;;;;;;9.82;87.49;101081.15;1713288;80;21670;-46
2022/11/09 08:26:56;;;;;;;53.63;29.07;;;;;;;9.96;86.97;101088.75;1707864;82;21388;-39
2022/11/09 08:29:23;;;;;;;49.45;31.07;;;;;;;10.03;86.65;101080.57;1707998;82;21431;-47
2022/11/09 08:31:50;;;;;;;49.40;29.57;;;;;;;10.04;85.89;101081.92;1713312;82;21041;-48
2022/11/09 08:34:17;;;;;;;49.48;29.87;;;;;;;10.06;86.03;101077.59;1712501;82;21296;-47
2022/11/09 08:36:44;;;;;;;53.38;30.65;;;;;;;10.14;86.26;101080.30;1710058;82;21300;-39
2022/11/09 08:39:10;;;;;;;49.88;30.92;;;;;;;10.17;86.10;101078.17;1716325;82;21501;-39
2022/11/09 08:41:40;;;;;;;58.63;31.68;;;;;;;10.21;86.04;101070.40;1718381;82;21355;-38
2022/11/09 08:44:06;;;;;;;59.65;31.85;;;;;;;10.30;85.94;101075.77;1713876;82;21017;-38
2022/11/09 08:46:33;;;;;;;51.98;30.82;;;;;;;10.38;85.54;101072.84;1720132;82;21056;-39
2022/11/09 08:49:00;;;;;;;56.35;32.38;;;;;;;10.48;85.30;101074.25;1719256;82;21025;-39
2022/11/09 08:51:27;;;;;;;53.45;30.35;;;;;;;10.55;85.06;101074.37;1723385;82;21020;-39
2022/11/09 08:53:53;;;;;;;56.15;31.10;;;;;;;10.60;85.06;101073.97;1726869;82;21037;-39
2022/11/09 08:56:20;;;;;;;65.47;30.10;;;;;;;10.63;84.89;101071.84;1723367;82;21029;-39
2022/11/09 08:58:47;;;;;;;54.85;30.12;;;;;;;10.66;84.43;101072.73;1716215;82;21113;-40
2022/11/09 09:01:19;;;;;;;58.60;30.52;;;;;;;10.68;84.45;101068.84;1714032;82;21317;-39
2022/11/09 09:03:46;;;;;;;54.45;31.10;;;;;;;10.68;84.50;101074.52;1718008;81;21924;-40
2022/11/09 09:06:13;;;;;;;46.60;31.33;;;;;;;10.71;84.68;101070.61;1718178;82;21077;-41
2022/11/09 09:08:39;;;;;;;46.33;29.92;;;;;;;10.82;84.82;101072.92;1719764;82;21592;-39
2022/11/09 09:11:06;;;;;;;49.58;30.57;;;;;;;10.94;84.39;101074.36;1717929;82;21084;-46
2022/11/09 09:13:33;;;;;;;43.52;28.02;;;;;;;11.00;84.24;101070.94;1716355;82;21938;-40
2022/11/09 09:16:13;;;;;;;49.88;28.20;;;;;;;11.05;84.31;101066.19;1717914;82;21005;-45
2022/11/09 09:18:41;;;;;;;49.50;29.40;;;;;;;11.15;84.01;101069.80;1713820;82;21093;-47
2022/11/09 09:21:16;;;;;;;46.40;25.12;;;;;;;11.29;83.37;101059.00;1710070;82;21150;-46
2022/11/09 09:23:42;;;;;;;;;;;;;;;11.41;83.06;101064.34;1715323;82;21744;-46
2022/11/09 09:26:10;;;;;;;42.55;21.50;;;;;;;11.52;83.09;101057.89;1715269;82;20439;-39
2022/11/09 09:28:38;;;;;;;39.60;23.98;;;;;;;11.62;82.79;101056.23;1716664;80;21079;-40
2022/11/09 09:31:05;;;;;;;33.85;22.25;;;;;;;11.70;82.23;101055.84;1714703;82;20981;-43
2022/11/09 09:33:33;;;;;;;41.80;23.75;;;;;;;11.77;81.67;101050.20;1710384;82;21045;-39
2022/11/09 09:36:00;;;;;;;40.25;23.55;;;;;;;11.80;81.30;101046.31;1709591;82;21049;-40
2022/11/09 09:38:27;;;;;;;41.85;23.60;;;;;;;11.84;80.98;101048.13;1712214;82;21624;-39
2022/11/09 09:41:00;;;;;;;40.33;24.18;;;;;;;11.90;80.62;101051.66;1712588;82;20954;-46
2022/11/09 09:43:48;;;;;;;39.42;23.98;;;;;;;12.02;80.34;101044.74;1714075;82;21510;-41
2022/11/09 09:46:30;;;;;;;38.48;22.60;;;;;;;12.16;79.77;101048.31;1715084;81;21331;-46
2022/11/09 09:49:19;;;;;;;41.08;22.70;;;;;;;12.33;78.99;101050.58;1715891;82;21013;-47
2022/11/09 09:52:21;;;;;;;38.48;22.90;;;;;;;12.47;78.62;101049.35;1710292;80;21020;-38
2022/11/09 09:55:27;;;;;;;32.30;21.90;;;;;;;12.64;78.17;101046.77;1708495;82;21129;-40
2022/11/09 09:57:56;;;;;;;38.00;21.45;;;;;;;12.82;77.12;101046.84;1708879;82;21031;-46
2022/11/09 10:00:26;;;;;;;33.75;21.07;;;;;;;12.93;76.12;101045.12;1719827;82;21514;-42
2022/11/09 10:02:54;;;;;;;32.85;19.62;;;;;;;13.01;75.50;101045.12;1714828;82;21877;-39
2022/11/09 10:05:27;;;;;;;31.45;20.25;;;;;;;13.03;74.69;101038.13;1712302;82;21619;-46
2022/11/09 10:08:11;;;;;;;34.13;19.62;;;;;;;13.08;74.49;101045.58;1711633;82;21001;-47
2022/11/09 10:11:25;;;;;;;32.63;18.82;;;;;;;13.12;74.38;101041.22;1709762;81;21272;-39
2022/11/09 10:14:41;;;;;;;31.60;18.45;;;;;;;13.16;73.42;101041.63;1715385;82;21583;-43
2022/11/09 10:17:52;;;;;;;36.73;17.35;;;;;;;13.15;72.53;101039.89;1713021;82;21009;-39
2022/11/09 10:20:30;;;;;;;35.88;18.92;;;;;;;13.14;72.14;101035.07;1721091;81;21009;-46
2022/11/09 10:23:15;;;;;;;42.70;19.80;;;;;;;13.26;71.90;101025.92;1721001;82;21441;-47
2022/11/09 10:25:44;;;;;;;36.30;19.70;;;;;;;13.43;71.74;101023.30;1708053;81;21038;-38
2022/11/09 10:28:14;;;;;;;37.40;19.65;;;;;;;13.61;71.05;101014.52;1718223;82;21112;-48
2022/11/09 10:30:41;;;;;;;45.85;23.27;;;;;;;13.80;70.17;101015.39;1717331;81;20992;-48
2022/11/09 10:33:17;;;;;;;33.75;20.68;;;;;;;14.13;68.96;101009.59;1722946;82;21752;-47
2022/11/09 10:35:53;;;;;;;30.35;18.20;;;;;;;14.35;67.53;101011.27;1719928;82;21479;-46
2022/11/09 10:38:25;;;;;;;39.95;19.37;;;;;;;14.60;66.29;101003.70;1711871;82;21013;-48
2022/11/09 10:41:37;;;;;;;48.35;21.73;;;;;;;14.69;65.62;101001.48;1711056;82;21532;-47
2022/11/09 10:44:22;;;;;;;29.67;18.45;;;;;;;14.72;65.21;101003.20;1713073;82;21085;-47
2022/11/09 10:47:11;;;;;;;26.75;16.73;;;;;;;14.52;64.75;100994.98;1716191;81;21018;-40
2022/11/09 10:50:12;;;;;;;23.35;13.93;;;;;;;14.25;64.42;100992.44;1715429;80;21108;-41
2022/11/09 10:53:19;;;;;;;25.45;15.20;;;;;;;13.98;64.08;100999.56;1708796;80;21072;-38
2022/11/09 10:56:14;;;;;;;19.95;11.93;;;;;;;13.74;64.06;100995.24;1721003;82;20973;-48
2022/11/09 10:59:48;;;;;;;20.62;12.88;;;;;;;13.47;64.11;100996.58;1692517;82;21831;-48
2022/11/09 11:02:43;;;;;;;23.07;14.93;;;;;;;13.29;64.28;100997.47;1619730;86;22037;-49
2022/11/09 11:05:29;;;;;;;42.67;24.43;;;;;;;13.13;65.42;100993.05;1626926;85;21111;-48
2022/11/09 11:08:34;;;;;;;26.90;18.67;;;;;;;13.00;66.23;100985.59;1635127;85;21053;-41
2022/11/09 11:11:28;;;;;;;33.88;17.45;;;;;;;12.87;66.37;100993.91;1645329;85;21302;-45
2022/11/09 11:14:31;;;;;;;30.97;17.85;;;;;;;12.76;67.00;100989.06;1655238;84;21673;-40
2022/11/09 11:17:36;;;;;;;29.23;17.35;;;;;;;12.65;67.48;100986.41;1662568;84;21725;-49
2022/11/09 11:20:32;;;;;;;21.97;14.95;;;;;;;12.62;68.04;100986.39;1648173;85;21041;-49
2022/11/09 11:23:25;;;;;;;24.25;15.35;;;;;;;12.60;67.31;100990.77;1689561;83;21063;-48
2022/11/09 11:26:34;;;;;;;17.30;10.98;;;;;;;12.54;67.03;100987.26;1701206;83;20972;-48
2022/11/09 11:29:43;;;;;;;12.20;8.33;;;;;;;12.53;65.49;100987.70;1697814;83;21049;-42
2022/11/09 11:32:28;;;;;;;15.00;8.10;;;;;;;12.49;64.09;100991.17;1693594;82;21554;-48
2022/11/09 11:35:24;;;;;;;19.65;9.55;;;;;;;12.45;63.84;100995.96;1699616;83;21074;-41
2022/11/09 11:38:29;;;;;;;14.50;8.80;;;;;;;12.40;64.12;101000.31;1722571;80;21029;-43
2022/11/09 11:41:22;;;;;;;11.53;7.33;;;;;;;12.32;63.91;100997.67;1776093;78;21021;-41
2022/11/09 11:44:25;;;;;;;12.88;7.85;;;;;;;12.26;63.29;100991.09;1774216;79;21060;-42
2022/11/09 11:47:37;;;;;;;10.95;7.75;;;;;;;12.22;63.23;100993.25;1780068;79;20988;-48
2022/11/09 11:51:13;;;;;;;11.03;7.28;;;;;;;12.22;63.13;100990.19;1778401;79;21028;-47
2022/11/09 11:54:40;;;;;;;13.65;8.23;;;;;;;12.18;63.06;100989.75;1776588;79;21409;-48
2022/11/09 11:57:37;;;;;;;15.35;9.78;;;;;;;12.18;63.21;100983.20;1785479;78;21290;-47
2022/11/09 12:00:22;;;;;;;17.00;9.73;;;;;;;12.17;63.25;100985.78;1778199;79;21409;-43
2022/11/09 12:03:52;;;;;;;20.80;11.12;;;;;;;12.09;63.63;100977.89;1774458;79;21004;-40
2022/11/09 12:06:46;;;;;;;16.65;10.95;;;;;;;12.08;64.09;100978.77;1774790;79;20962;-50
2022/11/09 12:09:52;;;;;;;;;;;;;;;12.10;64.23;100980.08;1779958;78;21087;-40
2022/11/09 12:13:04;;;;;;;20.15;11.78;;;;;;;12.08;64.27;100977.45;1779194;79;20098;-48
2022/11/09 12:16:07;;;;;;;18.60;11.90;;;;;;;12.03;64.34;100983.11;1776555;79;21095;-49
2022/11/09 12:18:57;;;;;;;27.07;16.55;;;;;;;11.95;64.66;100978.28;1778698;78;21055;-47
2022/11/09 12:21:53;;;;;;;30.00;18.92;;;;;;;11.85;65.86;100983.02;1774996;79;21933;-48
2022/11/09 12:25:07;;;;;;;32.17;17.32;;;;;;;11.75;66.58;100985.98;1773703;79;21116;-47
2022/11/09 12:28:25;;;;;;;27.45;17.17;;;;;;;11.67;67.11;100985.06;1771250;79;21051;-42
2022/11/09 12:31:30;;;;;;;27.62;17.73;;;;;;;11.60;67.81;100985.47;1791468;79;21882;-40
2022/11/09 12:34:29;;;;;;;29.80;16.73;;;;;;;11.52;68.34;100984.52;1786670;79;21049;-40
2022/11/09 12:37:21;;;;;;;27.75;15.75;;;;;;;11.42;68.72;100981.38;1783951;78;21432;-41
2022/11/09 12:40:29;;;;;;;36.85;16.00;;;;;;;11.33;68.56;100981.33;1793742;79;20968;-48
2022/11/09 12:43:39;;;;;;;34.88;15.43;;;;;;;11.27;69.12;100979.97;1787778;79;21071;-49
2022/11/09 12:46:45;;;;;;;26.12;15.18;;;;;;;11.24;69.17;100979.49;1792725;79;21520;-40
2022/11/09 12:49:35;;;;;;;23.57;16.23;;;;;;;11.21;69.58;100980.80;1780226;78;21012;-48
2022/11/09 12:52:26;;;;;;;28.75;14.65;;;;;;;11.18;69.71;100979.01;1792698;79;21051;-48
2022/11/09 12:55:17;;;;;;;23.70;13.98;;;;;;;11.16;69.74;100980.75;1784487;79;21666;-48
2022/11/09 12:58:03;;;;;;;18.57;13.48;;;;;;;11.16;70.10;100981.19;1772214;78;21111;-49
2022/11/09 13:00:50;;;;;;;21.87;13.25;;;;;;;11.15;69.98;100982.93;1789838;79;21013;-40
2022/11/09 13:03:42;;;;;;;19.17;12.82;;;;;;;11.12;70.07;100984.20;1785629;79;21127;-41
2022/11/09 13:06:30;;;;;;;22.27;12.85;;;;;;;11.10;70.18;100979.39;1795354;78;21021;-48
2022/11/09 13:09:24;;;;;;;22.58;14.47;;;;;;;11.08;70.36;100978.52;1793581;78;21138;-40
2022/11/09 13:12:21;;;;;;;23.55;14.13;;;;;;;11.08;70.50;100981.56;1796389;79;21004;-40
2022/11/09 13:15:25;;;;;;;30.05;14.78;;;;;;;11.07;70.79;100984.59;1774053;80;21048;-48
2022/11/09 13:18:37;;;;;;;36.80;15.68;;;;;;;11.07;71.05;100988.95;1766795;79;21060;-40
2022/11/09 13:21:27;;;;;;;29.32;14.98;;;;;;;11.07;71.27;100989.82;1684259;85;21009;-48
2022/11/09 13:24:36;;;;;;;18.02;12.98;;;;;;;11.06;71.36;100986.77;1694973;82;21706;-47
2022/11/09 13:27:40;;;;;;;26.82;13.72;;;;;;;11.03;71.32;100987.19;1712044;82;21484;-50
2022/11/09 13:30:37;;;;;;;26.25;13.10;;;;;;;10.98;71.84;100988.88;1710620;82;21042;-41
2022/11/09 13:33:24;;;;;;;26.90;13.62;;;;;;;10.95;72.30;100987.53;1712940;83;21619;-48
2022/11/09 13:36:14;;;;;;;24.30;14.13;;;;;;;10.90;72.56;100984.46;1713373;83;21064;-41
